createdAt,value
2018-01-05T00:00:21.520Z,19.08
2018-01-05T00:02:50.026Z,18.62
2018-01-05T00:05:17.643Z,18.55
2018-01-05T00:07:45.297Z,26.05
2018-01-05T00:10:12.920Z,23.20
2018-01-05T00:12:40.874Z,22.05
2018-01-05T00:15:09.347Z,21.58
2018-01-05T00:17:37.057Z,23.30
2018-01-05T00:20:04.691Z,21.23
2018-01-05T00:22:32.230Z,20.67
2018-01-05T00:25:00.614Z,25.42
2018-01-05T00:27:29.112Z,23.35
2018-01-05T00:29:56.750Z,33.65
2018-01-05T00:32:24.265Z,20.45
2018-01-05T00:34:51.973Z,27.87
2018-01-05T00:37:19.632Z,19.55
2018-01-05T00:39:47.955Z,25.40
2018-01-05T00:42:15.671Z,18.40
2018-01-05T00:44:43.273Z,17.80
2018-01-05T00:47:10.954Z,25.65
2018-01-05T00:49:38.542Z,10.85
2018-01-05T00:52:06.024Z,12.10
2018-01-05T00:54:34.431Z,18.87
2018-01-05T00:57:02.116Z,20.55
2018-01-05T00:59:29.729Z,20.42
2018-01-05T01:01:58.193Z,12.80
2018-01-05T01:04:25.850Z,22.80
2018-01-05T01:06:53.510Z,12.57
2018-01-05T01:09:21.191Z,17.27
2018-01-05T01:11:48.974Z,12.90
2018-01-05T01:14:16.601Z,22.08
2018-01-05T01:16:44.338Z,17.90
2018-01-05T01:19:11.854Z,14.95
2018-01-05T01:21:40.140Z,15.32
2018-01-05T01:24:07.758Z,14.77
2018-01-05T01:26:35.434Z,15.13
2018-01-05T01:29:03.109Z,12.43
2018-01-05T01:31:31.558Z,30.30
2018-01-05T01:33:59.094Z,25.05
2018-01-05T01:36:27.297Z,26.90
2018-01-05T01:38:54.953Z,27.37
2018-01-05T01:41:22.510Z,20.70
2018-01-05T01:43:50.080Z,24.12
2018-01-05T01:46:17.671Z,16.83
2018-01-05T01:48:50.162Z,24.37
2018-01-05T01:51:17.798Z,24.50
2018-01-05T01:53:45.427Z,18.45
2018-01-05T01:56:12.982Z,16.20
2018-01-05T01:58:41.493Z,17.20
2018-01-05T02:01:09.861Z,16.87
2018-01-05T02:03:39.385Z,18.37
2018-01-05T02:06:07.037Z,20.73
2018-01-05T02:08:34.773Z,30.98
2018-01-05T02:11:02.534Z,14.93
2018-01-05T02:13:30.166Z,14.10
2018-01-05T02:15:57.801Z,22.90
2018-01-05T02:18:25.458Z,19.65
2018-01-05T02:20:54.493Z,22.77
2018-01-05T02:23:22.086Z,17.52
2018-01-05T02:25:49.771Z,28.67
2018-01-05T02:28:18.260Z,34.53
2018-01-05T02:30:46.603Z,22.23
2018-01-05T02:33:14.226Z,17.95
2018-01-05T02:35:41.874Z,18.58
2018-01-05T02:38:09.482Z,23.52
2018-01-05T02:40:37.146Z,24.08
2018-01-05T02:43:04.704Z,19.27
2018-01-05T02:45:32.404Z,24.23
2018-01-05T02:48:00.066Z,32.95
2018-01-05T02:50:28.553Z,30.52
2018-01-05T02:52:56.953Z,27.52
2018-01-05T02:55:25.532Z,26.67
2018-01-05T02:57:54.058Z,26.45
2018-01-05T03:00:21.933Z,31.25
2018-01-05T03:02:50.441Z,29.52
2018-01-05T03:05:18.034Z,15.45
2018-01-05T03:07:45.562Z,29.70
2018-01-05T03:10:13.218Z,29.40
2018-01-05T03:12:40.844Z,29.65
2018-01-05T03:15:08.511Z,20.70
2018-01-05T03:17:36.010Z,29.15
2018-01-05T03:20:04.266Z,21.75
2018-01-05T03:22:31.756Z,16.73
2018-01-05T03:25:00.180Z,20.50
2018-01-05T03:27:27.725Z,18.98
2018-01-05T03:29:56.208Z,21.62
2018-01-05T03:32:23.920Z,14.73
2018-01-05T03:34:51.551Z,26.98
2018-01-05T03:37:19.238Z,25.70
2018-01-05T03:39:46.919Z,26.58
2018-01-05T03:42:15.232Z,22.58
2018-01-05T03:44:42.949Z,16.70
2018-01-05T03:47:10.585Z,19.77
2018-01-05T03:49:38.091Z,25.65
2018-01-05T03:52:06.519Z,23.62
2018-01-05T03:54:34.112Z,21.23
2018-01-05T03:57:01.737Z,22.30
2018-01-05T03:59:29.430Z,16.42
2018-01-05T04:01:57.137Z,13.48
2018-01-05T04:04:24.759Z,18.73
2018-01-05T04:06:53.180Z,15.10
2018-01-05T04:09:21.592Z,23.52
2018-01-05T04:11:49.314Z,18.92
2018-01-05T04:14:17.782Z,17.17
2018-01-05T04:16:45.494Z,21.55
2018-01-05T04:19:13.385Z,22.20
2018-01-05T04:21:40.980Z,14.10
2018-01-05T04:24:08.637Z,15.50
2018-01-05T04:26:36.312Z,12.95
2018-01-05T04:29:03.826Z,17.42
2018-01-05T04:31:31.592Z,23.38
2018-01-05T04:33:59.251Z,12.60
2018-01-05T04:36:26.998Z,24.30
2018-01-05T04:38:55.579Z,10.75
2018-01-05T04:41:23.245Z,17.25
2018-01-05T04:43:50.886Z,21.23
2018-01-05T04:46:18.636Z,18.25
2018-01-05T04:48:46.293Z,17.52
2018-01-05T04:51:14.919Z,30.95
2018-01-05T04:53:43.330Z,17.08
2018-01-05T04:56:11.985Z,17.65
2018-01-05T04:58:39.680Z,23.60
2018-01-05T05:01:07.218Z,18.23
2018-01-05T05:03:34.739Z,24.40
2018-01-05T05:06:02.351Z,21.67
2018-01-05T05:08:29.971Z,18.95
2018-01-05T05:10:57.666Z,28.45
2018-01-05T05:13:25.211Z,11.90
2018-01-05T05:15:52.887Z,13.85
2018-01-05T05:18:20.574Z,14.68
2018-01-05T05:20:48.241Z,20.70
2018-01-05T05:23:16.596Z,20.48
2018-01-05T05:25:44.971Z,21.83
2018-01-05T05:28:12.530Z,21.23
2018-01-05T05:30:40.904Z,20.30
2018-01-05T05:33:08.926Z,16.35
2018-01-05T05:35:37.340Z,17.27
2018-01-05T05:38:05.148Z,13.23
2018-01-05T05:40:32.745Z,18.45
2018-01-05T05:43:01.062Z,16.08
2018-01-05T05:45:28.850Z,19.80
2018-01-05T05:47:57.359Z,15.70
2018-01-05T05:50:25.894Z,17.83
2018-01-05T05:52:54.324Z,23.90
2018-01-05T05:55:21.920Z,22.30
2018-01-05T05:57:49.624Z,18.37
2018-01-05T06:00:17.428Z,24.35
2018-01-05T06:02:45.341Z,12.75
2018-01-05T06:05:13.637Z,19.15
2018-01-05T06:07:41.366Z,21.02
2018-01-05T06:10:09.239Z,21.73
2018-01-05T06:12:36.743Z,23.77
2018-01-05T06:15:05.271Z,23.52
2018-01-05T06:17:32.807Z,29.27
2018-01-05T06:20:00.490Z,22.55
2018-01-05T06:22:28.971Z,22.52
2018-01-05T06:24:56.631Z,26.02
2018-01-05T06:27:24.198Z,23.73
2018-01-05T06:29:51.867Z,23.92
2018-01-05T06:32:20.236Z,22.75
2018-01-05T06:34:47.796Z,33.95
2018-01-05T06:37:15.834Z,29.70
2018-01-05T06:39:43.443Z,24.08
2018-01-05T06:42:11.096Z,28.40
2018-01-05T06:44:38.749Z,28.33
2018-01-05T06:47:07.306Z,19.05
2018-01-05T06:49:34.997Z,22.40
2018-01-05T06:52:02.526Z,20.85
2018-01-05T06:54:30.958Z,30.85
2018-01-05T06:56:59.002Z,17.92
2018-01-05T06:59:27.397Z,14.80
2018-01-05T07:01:55.178Z,23.42
2018-01-05T07:04:22.879Z,21.50
2018-01-05T07:06:50.483Z,27.62
2018-01-05T07:09:18.258Z,20.60
2018-01-05T07:11:46.630Z,19.33
2018-01-05T07:14:14.271Z,23.87
2018-01-05T07:16:41.955Z,23.00
2018-01-05T07:19:09.605Z,33.35
2018-01-05T07:21:37.271Z,20.92
2018-01-05T07:24:05.998Z,21.60
2018-01-05T07:26:33.752Z,23.38
2018-01-05T07:29:01.351Z,12.63
2018-01-05T07:31:29.555Z,20.83
2018-01-05T07:33:57.408Z,17.25
2018-01-05T07:36:24.958Z,19.90
2018-01-05T07:38:52.538Z,29.05
2018-01-05T07:41:20.069Z,17.05
2018-01-05T07:43:48.331Z,25.98
2018-01-05T07:46:16.744Z,26.17
2018-01-05T07:48:44.506Z,18.23
2018-01-05T07:51:12.861Z,16.52
2018-01-05T07:53:41.283Z,18.40
2018-01-05T07:56:08.926Z,17.50
2018-01-05T07:58:36.579Z,21.25
2018-01-05T08:01:04.937Z,19.80
2018-01-05T08:03:33.214Z,14.38
2018-01-05T08:06:01.542Z,21.20
2018-01-05T08:08:29.198Z,11.65
2018-01-05T08:10:56.841Z,16.90
2018-01-05T08:13:24.537Z,16.90
2018-01-05T08:15:52.412Z,20.25
2018-01-05T08:18:20.028Z,12.00
2018-01-05T08:20:47.534Z,21.20
2018-01-05T08:23:15.036Z,19.55
2018-01-05T08:25:43.302Z,11.43
2018-01-05T08:28:11.566Z,12.65
2018-01-05T08:30:39.098Z,21.00
2018-01-05T08:33:06.883Z,17.12
2018-01-05T08:35:34.695Z,14.93
2018-01-05T08:38:02.210Z,19.37
2018-01-05T08:40:29.837Z,18.02
2018-01-05T08:42:57.336Z,14.48
2018-01-05T08:45:24.830Z,17.62
2018-01-05T08:47:52.327Z,22.80
2018-01-05T08:50:19.974Z,17.85
2018-01-05T08:52:47.494Z,23.87
2018-01-05T08:55:15.229Z,17.30
2018-01-05T08:57:42.710Z,13.00
2018-01-05T09:00:11.203Z,23.92
2018-01-05T09:02:38.778Z,8.45
2018-01-05T09:05:06.459Z,14.55
2018-01-05T09:07:34.126Z,19.37
2018-01-05T09:10:01.642Z,23.35
2018-01-05T09:12:29.130Z,22.92
2018-01-05T09:14:57.423Z,18.33
2018-01-05T09:17:24.949Z,23.20
2018-01-05T09:19:52.570Z,19.62
2018-01-05T09:22:20.321Z,19.73
2018-01-05T09:24:47.989Z,23.02
2018-01-05T09:27:15.683Z,18.23
2018-01-05T09:29:43.218Z,18.70
2018-01-05T09:32:10.923Z,19.62
2018-01-05T09:34:38.700Z,21.60
2018-01-05T09:37:06.493Z,21.90
2018-01-05T09:39:34.816Z,19.65
2018-01-05T09:42:03.137Z,18.37
2018-01-05T09:44:30.704Z,14.32
2018-01-05T09:46:58.951Z,13.82
2018-01-05T09:49:27.383Z,18.75
2018-01-05T09:51:55.116Z,19.60
2018-01-05T09:54:22.835Z,20.50
2018-01-05T09:56:50.488Z,16.52
2018-01-05T09:59:19.027Z,21.92
2018-01-05T10:01:46.721Z,17.00
2018-01-05T10:04:14.202Z,21.83
2018-01-05T10:06:42.695Z,20.00
2018-01-05T10:09:10.182Z,31.77
2018-01-05T10:11:37.814Z,26.92
2018-01-05T10:14:05.489Z,22.05
2018-01-05T10:16:32.994Z,22.33
2018-01-05T10:19:00.483Z,18.42
2018-01-05T10:21:28.878Z,18.23
2018-01-05T10:23:56.780Z,19.33
2018-01-05T10:26:24.540Z,19.73
2018-01-05T10:28:52.305Z,23.92
2018-01-05T10:31:19.796Z,21.83
2018-01-05T10:33:47.282Z,24.70
2018-01-05T10:36:15.746Z,21.02
2018-01-05T10:38:43.462Z,18.40
2018-01-05T10:41:11.096Z,24.33
2018-01-05T10:43:38.821Z,16.73
2018-01-05T10:46:06.582Z,13.55
2018-01-05T10:48:34.249Z,20.75
2018-01-05T10:51:01.925Z,22.70
2018-01-05T10:53:29.558Z,20.70
2018-01-05T10:55:57.139Z,16.50
2018-01-05T10:58:24.806Z,14.77
2018-01-05T11:00:53.147Z,19.45
2018-01-05T11:03:20.706Z,23.90
2018-01-05T11:05:48.414Z,12.80
2018-01-05T11:08:15.948Z,19.62
2018-01-05T11:10:43.454Z,16.15
2018-01-05T11:13:10.966Z,22.37
2018-01-05T11:15:38.719Z,25.90
2018-01-05T11:18:06.300Z,19.08
2018-01-05T11:20:33.963Z,19.00
2018-01-05T11:23:01.516Z,24.00
2018-01-05T11:25:29.014Z,11.40
2018-01-05T11:27:56.539Z,22.20
2018-01-05T11:30:24.043Z,12.40
2018-01-05T11:32:51.644Z,17.85
2018-01-05T11:35:19.390Z,16.65
2018-01-05T11:37:46.897Z,11.07
2018-01-05T11:40:14.381Z,17.00
2018-01-05T11:42:41.922Z,15.45
2018-01-05T11:45:10.201Z,14.80
2018-01-05T11:47:38.578Z,17.77
2018-01-05T11:50:06.858Z,14.20
2018-01-05T11:52:34.482Z,17.55
2018-01-05T11:55:02.183Z,15.80
2018-01-05T11:57:30.616Z,17.30
2018-01-05T11:59:58.122Z,12.80
2018-01-05T12:02:25.626Z,16.33
2018-01-05T12:04:53.150Z,13.82
2018-01-05T12:07:21.057Z,19.10
2018-01-05T12:09:48.692Z,15.73
2018-01-05T12:12:16.302Z,20.30
2018-01-05T12:14:43.802Z,12.68
2018-01-05T12:17:11.300Z,18.43
2018-01-05T12:19:38.970Z,14.27
2018-01-05T12:22:07.261Z,27.60
2018-01-05T12:24:34.753Z,10.80
2018-01-05T12:27:03.310Z,19.23
2018-01-05T12:29:30.798Z,13.30
2018-01-05T12:31:58.493Z,14.23
2018-01-05T12:34:26.074Z,14.15
2018-01-05T12:36:53.661Z,14.13
2018-01-05T12:39:21.146Z,11.07
2018-01-05T12:41:48.695Z,22.77
2018-01-05T12:44:16.402Z,9.88
2018-01-05T12:46:43.909Z,16.42
2018-01-05T12:49:12.323Z,13.68
2018-01-05T12:51:39.841Z,17.80
2018-01-05T12:54:08.098Z,9.27
2018-01-05T12:56:35.711Z,14.00
2018-01-05T12:59:03.227Z,18.33
2018-01-05T13:01:30.958Z,19.15
2018-01-05T13:03:58.590Z,17.20
2018-01-05T13:06:26.218Z,17.23
2018-01-05T13:08:54.591Z,11.60
2018-01-05T13:11:22.293Z,22.30
2018-01-05T13:13:49.795Z,18.62
2018-01-05T13:16:18.062Z,19.12
2018-01-05T13:18:45.615Z,10.90
2018-01-05T13:21:13.178Z,11.43
2018-01-05T13:23:40.786Z,12.30
2018-01-05T13:26:08.330Z,18.15
2018-01-05T13:28:35.864Z,19.30
2018-01-05T13:31:03.404Z,19.67
2018-01-05T13:33:30.988Z,13.25
2018-01-05T13:35:58.504Z,17.37
2018-01-05T13:38:27.231Z,16.15
2018-01-05T13:40:54.810Z,14.57
2018-01-05T13:43:22.855Z,13.50
2018-01-05T13:45:50.424Z,18.37
2018-01-05T13:48:17.989Z,20.10
2018-01-05T13:50:45.491Z,13.35
2018-01-05T13:53:13.068Z,14.27
2018-01-05T13:55:40.608Z,10.10
2018-01-05T13:58:08.109Z,16.05
2018-01-05T14:00:35.594Z,16.83
2018-01-05T14:03:03.099Z,17.98
2018-01-05T14:05:30.597Z,20.17
2018-01-05T14:07:58.090Z,12.27
2018-01-05T14:10:26.423Z,15.25
2018-01-05T14:12:53.906Z,24.60
2018-01-05T14:15:21.529Z,10.80
2018-01-05T14:17:49.077Z,15.23
2018-01-05T14:20:16.566Z,16.00
2018-01-05T14:22:44.066Z,15.43
2018-01-05T14:25:12.682Z,8.82
2018-01-05T14:27:40.198Z,12.63
2018-01-05T14:30:07.746Z,12.05
2018-01-05T14:32:35.258Z,14.65
2018-01-05T14:35:02.761Z,17.65
2018-01-05T14:37:30.335Z,21.02
2018-01-05T14:39:57.906Z,16.27
2018-01-05T14:42:26.281Z,9.48
2018-01-05T14:44:53.853Z,21.83
2018-01-05T14:47:22.118Z,15.82
2018-01-05T14:49:50.561Z,12.00
2018-01-05T14:52:18.220Z,14.18
2018-01-05T14:54:46.687Z,13.77
2018-01-05T14:57:14.173Z,18.55
2018-01-05T14:59:41.704Z,16.42
2018-01-05T15:02:09.226Z,12.07
2018-01-05T15:04:36.764Z,12.48
2018-01-05T15:07:04.267Z,14.38
2018-01-05T15:09:31.846Z,17.73
2018-01-05T15:11:59.367Z,13.02
2018-01-05T15:14:27.625Z,18.27
2018-01-05T15:16:55.132Z,15.13
2018-01-05T15:19:22.730Z,12.50
2018-01-05T15:21:50.372Z,16.00
2018-01-05T15:24:17.881Z,17.20
2018-01-05T15:26:46.257Z,19.60
2018-01-05T15:29:14.707Z,17.15
2018-01-05T15:31:42.218Z,15.98
2018-01-05T15:34:09.744Z,14.00
2018-01-05T15:36:37.274Z,13.68
2018-01-05T15:39:04.906Z,7.00
2018-01-05T15:41:33.391Z,15.57
2018-01-05T15:44:01.220Z,11.02
2018-01-05T15:46:28.750Z,4.82
2018-01-05T15:48:56.375Z,6.30
2018-01-05T15:51:23.895Z,3.10
2018-01-05T15:53:51.386Z,5.10
2018-01-05T15:56:19.626Z,2.50
2018-01-05T15:58:47.230Z,3.53
2018-01-05T16:01:14.746Z,4.80
2018-01-05T16:03:42.377Z,4.12
2018-01-05T16:06:09.895Z,6.62
2018-01-05T16:08:38.159Z,3.75
2018-01-05T16:11:06.440Z,3.50
2018-01-05T16:13:34.834Z,3.87
2018-01-05T16:16:02.347Z,2.28
2018-01-05T16:18:29.843Z,5.55
2018-01-05T16:20:57.449Z,3.20
2018-01-05T16:23:25.734Z,3.97
2018-01-05T16:25:53.214Z,2.25
2018-01-05T16:28:20.698Z,2.15
2018-01-05T16:30:48.958Z,5.12
2018-01-05T16:33:16.546Z,2.00
2018-01-05T16:35:44.168Z,4.65
2018-01-05T16:38:11.805Z,1.10
2018-01-05T16:40:39.304Z,3.45
2018-01-05T16:43:07.507Z,4.10
2018-01-05T16:45:34.994Z,2.80
2018-01-05T16:48:02.606Z,6.87
2018-01-05T16:50:30.170Z,2.50
2018-01-05T16:52:58.537Z,2.78
2018-01-05T16:55:26.173Z,4.07
2018-01-05T16:57:53.896Z,4.07
2018-01-05T17:00:21.607Z,3.95
2018-01-05T17:02:49.094Z,2.47
2018-01-05T17:05:17.398Z,3.03
2018-01-05T17:07:44.952Z,7.80
2018-01-05T17:10:12.740Z,3.37
2018-01-05T17:12:40.248Z,9.63
2018-01-05T17:15:07.786Z,4.18
2018-01-05T17:17:35.335Z,2.40
2018-01-05T17:20:02.838Z,2.25
2018-01-05T17:22:30.451Z,5.60
2018-01-05T17:24:57.965Z,5.62
2018-01-05T17:27:25.588Z,3.53
2018-01-05T17:29:53.890Z,3.87
2018-01-05T17:32:22.281Z,8.10
2018-01-05T17:34:49.835Z,4.85
2018-01-05T17:37:18.127Z,4.90
2018-01-05T17:39:45.622Z,4.25
2018-01-05T17:42:13.102Z,4.53
2018-01-05T17:44:40.583Z,4.57
2018-01-05T17:47:08.848Z,3.15
2018-01-05T17:49:36.349Z,7.07
2018-01-05T17:52:03.843Z,4.07
2018-01-05T17:54:31.385Z,3.72
2018-01-05T17:56:58.882Z,6.43
2018-01-05T17:59:27.531Z,5.57
2018-01-05T18:01:55.014Z,3.30
2018-01-05T18:04:22.498Z,4.25
2018-01-05T18:06:51.157Z,2.28
2018-01-05T18:09:18.826Z,2.55
2018-01-05T18:11:46.302Z,6.45
2018-01-05T18:14:14.550Z,3.03
2018-01-05T18:16:42.162Z,6.12
2018-01-05T18:19:10.843Z,13.18
2018-01-05T18:21:38.314Z,5.97
2018-01-05T18:24:05.842Z,9.15
2018-01-05T18:26:33.485Z,4.05
2018-01-05T18:29:01.260Z,4.25
2018-01-05T18:31:28.813Z,4.93
2018-01-05T18:33:57.158Z,2.90
2018-01-05T18:36:24.634Z,3.72
2018-01-05T18:38:52.136Z,5.43
2018-01-05T18:41:19.763Z,6.65
2018-01-05T18:43:48.562Z,7.22
2018-01-05T18:46:16.078Z,5.62
2018-01-05T18:48:43.562Z,5.87
2018-01-05T18:51:11.045Z,9.55
2018-01-05T18:53:38.690Z,7.03
2018-01-05T18:56:06.200Z,8.65
2018-01-05T18:58:33.686Z,6.32
2018-01-05T19:01:01.166Z,4.10
2018-01-05T19:03:28.676Z,5.50
2018-01-05T19:05:56.170Z,5.15
2018-01-05T19:08:23.965Z,4.55
2018-01-05T19:13:25.307Z,9.57
2018-01-05T19:15:52.905Z,2.70
2018-01-05T19:18:20.387Z,4.32
2018-01-05T19:20:47.874Z,6.70
2018-01-05T19:23:15.390Z,9.73
2018-01-05T19:25:42.862Z,4.15
2018-01-05T19:28:10.378Z,7.03
2018-01-05T19:30:38.118Z,8.50
2018-01-05T19:33:07.182Z,7.28
2018-01-05T19:35:34.690Z,4.85
2018-01-05T19:38:02.384Z,6.78
2018-01-05T19:40:29.870Z,5.05
2018-01-05T19:42:57.443Z,10.70
2018-01-05T19:45:24.998Z,6.15
2018-01-05T19:47:52.473Z,4.25
2018-01-05T19:50:20.174Z,7.93
2018-01-05T19:52:47.743Z,11.57
2018-01-05T19:55:15.227Z,8.07
2018-01-05T19:57:42.708Z,13.68
2018-01-05T20:00:10.222Z,7.68
2018-01-05T20:02:37.713Z,4.57
2018-01-05T20:05:05.206Z,6.50
2018-01-05T20:07:33.961Z,5.68
2018-01-05T20:10:01.444Z,6.05
2018-01-05T20:12:29.242Z,10.90
2018-01-05T20:14:56.767Z,8.40
2018-01-05T20:17:24.358Z,5.65
2018-01-05T20:19:52.642Z,5.70
2018-01-05T20:22:20.936Z,13.88
2018-01-05T20:24:48.424Z,6.68
2018-01-05T20:27:16.735Z,5.20
2018-01-05T20:29:44.961Z,9.95
2018-01-05T20:32:12.511Z,15.18
2018-01-05T20:34:40.007Z,7.68
2018-01-05T20:37:07.510Z,10.00
2018-01-05T20:39:35.152Z,6.47
2018-01-05T20:42:03.443Z,9.00
2018-01-05T20:44:31.091Z,6.78
2018-01-05T20:46:59.390Z,9.32
2018-01-05T20:49:26.878Z,12.25
2018-01-05T20:51:54.413Z,9.35
2018-01-05T20:54:21.959Z,8.23
2018-01-05T20:56:49.457Z,10.98
2018-01-05T20:59:17.091Z,7.78
2018-01-05T21:01:44.642Z,8.38
2018-01-05T21:04:12.937Z,6.75
2018-01-05T21:06:40.490Z,12.27
2018-01-05T21:09:08.768Z,5.72
2018-01-05T21:11:36.437Z,9.32
2018-01-05T21:14:03.984Z,9.10
2018-01-05T21:16:32.469Z,11.27
2018-01-05T21:19:00.261Z,8.73
2018-01-05T21:21:27.845Z,7.75
2018-01-05T21:23:55.615Z,10.90
2018-01-05T21:26:23.637Z,15.00
2018-01-05T21:28:52.098Z,9.32
2018-01-05T21:31:19.764Z,10.88
2018-01-05T21:33:47.469Z,8.27
2018-01-05T21:36:15.453Z,12.85
2018-01-05T21:38:43.051Z,6.60
2018-01-05T21:41:10.622Z,6.07
2018-01-05T21:43:38.244Z,12.00
2018-01-05T21:46:05.873Z,8.23
2018-01-05T21:48:33.599Z,9.30
2018-01-05T21:51:01.842Z,12.50
2018-01-05T21:53:29.536Z,9.50
2018-01-05T21:55:57.039Z,6.00
2018-01-05T21:58:24.848Z,10.63
2018-01-05T22:00:52.527Z,10.02
2018-01-05T22:03:20.786Z,9.50
2018-01-05T22:05:49.770Z,9.90
2018-01-05T22:08:17.253Z,7.65
2018-01-05T22:10:45.534Z,9.85
2018-01-05T22:13:13.015Z,6.97
2018-01-05T22:15:40.496Z,13.13
2018-01-05T22:18:08.781Z,6.40
2018-01-05T22:20:36.254Z,5.18
2018-01-05T22:23:03.747Z,12.43
2018-01-05T22:25:31.246Z,9.02
2018-01-05T22:27:58.727Z,20.15
2018-01-05T22:30:26.214Z,4.87
2018-01-05T22:32:54.590Z,6.20
2018-01-05T22:35:22.834Z,5.65
2018-01-05T22:37:51.153Z,8.48
2018-01-05T22:40:19.434Z,8.93
2018-01-05T22:42:46.926Z,8.15
2018-01-05T22:45:14.402Z,6.28
2018-01-05T22:47:41.924Z,10.25
2018-01-05T22:50:09.682Z,11.38
2018-01-05T22:52:37.242Z,14.95
2018-01-05T22:55:04.740Z,8.45
2018-01-05T22:57:32.374Z,7.25
2018-01-05T22:59:59.869Z,8.32
2018-01-05T23:02:27.482Z,8.18
2018-01-05T23:04:54.990Z,9.68
2018-01-05T23:07:22.465Z,6.90
2018-01-05T23:09:50.074Z,10.75
2018-01-05T23:12:17.554Z,8.25
2018-01-05T23:14:46.030Z,13.88
2018-01-05T23:17:13.538Z,11.68
2018-01-05T23:19:41.027Z,11.10
2018-01-05T23:22:08.526Z,15.23
2018-01-05T23:24:36.016Z,11.43
2018-01-05T23:27:04.254Z,9.93
2018-01-05T23:29:31.754Z,4.78
2018-01-05T23:32:00.002Z,8.30
2018-01-05T23:34:27.635Z,6.72
2018-01-05T23:36:55.194Z,10.25
2018-01-05T23:39:22.915Z,7.32
2018-01-05T23:41:51.178Z,4.62
2018-01-05T23:44:19.462Z,10.55
2018-01-05T23:46:47.722Z,9.32
2018-01-05T23:49:15.194Z,10.57
2018-01-05T23:51:43.476Z,11.25
2018-01-05T23:54:11.724Z,6.55
2018-01-05T23:56:39.210Z,7.40
2018-01-05T23:59:07.886Z,7.55
